sensor_id;sensor_type;location;lat;lon;timestamp;temperature;humidity
41447;DHT22;27185;52.040;4.490;2023-05-14T00:02:25;14.80;99.90
41447;DHT22;27185;52.040;4.490;2023-05-14T00:05:11;14.80;99.90
41447;DHT22;27185;52.040;4.490;2023-05-14T00:07:56;14.80;99.90
41447;DHT22;27185;52.040;4.490;2023-05-14T00:10:42;14.80;99.90
41447;DHT22;27185;52.040;4.490;2023-05-14T00:13:28;14.80;99.90
41447;DHT22;27185;52.040;4.490;2023-05-14T00:16:13;14.70;99.90
41447;DHT22;27185;52.040;4.490;2023-05-14T00:18:59;14.80;99.90
41447;DHT22;27185;52.040;4.490;2023-05-14T00:21:46;14.80;99.90
41447;DHT22;27185;52.040;4.490;2023-05-14T00:24:31;14.80;99.90
41447;DHT22;27185;52.040;4.490;2023-05-14T00:27:17;14.70;99.90
41447;DHT22;27185;52.040;4.490;2023-05-14T00:30:04;14.70;99.90
41447;DHT22;27185;52.040;4.490;2023-05-14T00:32:51;14.70;99.90
41447;DHT22;27185;52.040;4.490;2023-05-14T00:35:36;14.70;99.90
41447;DHT22;27185;52.040;4.490;2023-05-14T00:38:22;14.70;99.90
41447;DHT22;27185;52.040;4.490;2023-05-14T00:41:08;14.60;99.90
41447;DHT22;27185;52.040;4.490;2023-05-14T00:43:54;14.60;99.90
41447;DHT22;27185;52.040;4.490;2023-05-14T00:46:39;14.60;99.90
41447;DHT22;27185;52.040;4.490;2023-05-14T00:49:25;14.50;99.90
41447;DHT22;27185;52.040;4.490;2023-05-14T00:52:12;14.40;99.90
41447;DHT22;27185;52.040;4.490;2023-05-14T00:54:58;14.40;99.90
41447;DHT22;27185;52.040;4.490;2023-05-14T00:57:44;14.40;99.90
41447;DHT22;27185;52.040;4.490;2023-05-14T01:00:29;14.40;99.90
41447;DHT22;27185;52.040;4.490;2023-05-14T01:03:15;14.30;99.90
41447;DHT22;27185;52.040;4.490;2023-05-14T01:09:34;14.20;99.90
41447;DHT22;27185;52.040;4.490;2023-05-14T01:15:22;14.10;99.90
41447;DHT22;27185;52.040;4.490;2023-05-14T01:18:10;14.10;99.90
41447;DHT22;27185;52.040;4.490;2023-05-14T01:20:57;14.00;99.90
41447;DHT22;27185;52.040;4.490;2023-05-14T01:23:43;14.00;99.90
41447;DHT22;27185;52.040;4.490;2023-05-14T01:26:29;14.00;99.90
41447;DHT22;27185;52.040;4.490;2023-05-14T01:29:18;13.90;99.90
41447;DHT22;27185;52.040;4.490;2023-05-14T01:32:06;13.90;99.90
41447;DHT22;27185;52.040;4.490;2023-05-14T01:34:54;13.80;99.90
41447;DHT22;27185;52.040;4.490;2023-05-14T01:37:42;13.80;99.90
41447;DHT22;27185;52.040;4.490;2023-05-14T01:40:28;13.80;99.90
41447;DHT22;27185;52.040;4.490;2023-05-14T01:43:15;13.70;99.90
41447;DHT22;27185;52.040;4.490;2023-05-14T01:46:01;13.70;99.90
41447;DHT22;27185;52.040;4.490;2023-05-14T01:48:46;13.70;99.90
41447;DHT22;27185;52.040;4.490;2023-05-14T01:51:32;13.70;99.90
41447;DHT22;27185;52.040;4.490;2023-05-14T01:54:17;13.60;99.90
41447;DHT22;27185;52.040;4.490;2023-05-14T01:57:03;13.60;99.90
41447;DHT22;27185;52.040;4.490;2023-05-14T01:59:49;13.60;99.90
41447;DHT22;27185;52.040;4.490;2023-05-14T02:02:34;13.50;99.90
41447;DHT22;27185;52.040;4.490;2023-05-14T02:05:20;13.50;99.90
41447;DHT22;27185;52.040;4.490;2023-05-14T02:08:06;13.50;99.90
41447;DHT22;27185;52.040;4.490;2023-05-14T02:10:51;13.40;99.90
41447;DHT22;27185;52.040;4.490;2023-05-14T02:13:37;13.40;99.90
41447;DHT22;27185;52.040;4.490;2023-05-14T02:16:22;13.40;99.90
41447;DHT22;27185;52.040;4.490;2023-05-14T02:19:08;13.40;99.90
41447;DHT22;27185;52.040;4.490;2023-05-14T02:21:53;13.40;99.90
41447;DHT22;27185;52.040;4.490;2023-05-14T02:24:39;13.30;99.90
41447;DHT22;27185;52.040;4.490;2023-05-14T02:27:25;13.30;99.90
41447;DHT22;27185;52.040;4.490;2023-05-14T02:30:11;13.30;99.90
41447;DHT22;27185;52.040;4.490;2023-05-14T02:32:56;13.30;99.90
41447;DHT22;27185;52.040;4.490;2023-05-14T02:35:42;13.30;99.90
41447;DHT22;27185;52.040;4.490;2023-05-14T02:38:28;13.30;99.90
41447;DHT22;27185;52.040;4.490;2023-05-14T02:41:13;13.30;99.90
41447;DHT22;27185;52.040;4.490;2023-05-14T02:43:59;13.30;99.90
41447;DHT22;27185;52.040;4.490;2023-05-14T02:46:44;13.30;99.90
41447;DHT22;27185;52.040;4.490;2023-05-14T02:49:30;13.30;99.90
41447;DHT22;27185;52.040;4.490;2023-05-14T02:52:15;13.30;99.90
41447;DHT22;27185;52.040;4.490;2023-05-14T02:55:01;13.30;99.90
41447;DHT22;27185;52.040;4.490;2023-05-14T02:57:47;13.30;99.90
41447;DHT22;27185;52.040;4.490;2023-05-14T03:00:32;13.30;99.90
41447;DHT22;27185;52.040;4.490;2023-05-14T03:03:18;13.30;99.90
41447;DHT22;27185;52.040;4.490;2023-05-14T03:06:04;13.30;99.90
41447;DHT22;27185;52.040;4.490;2023-05-14T03:08:50;13.20;99.90
41447;DHT22;27185;52.040;4.490;2023-05-14T03:11:35;13.20;99.90
41447;DHT22;27185;52.040;4.490;2023-05-14T03:14:21;13.20;99.90
41447;DHT22;27185;52.040;4.490;2023-05-14T03:17:07;13.20;99.90
41447;DHT22;27185;52.040;4.490;2023-05-14T03:19:52;13.20;99.90
41447;DHT22;27185;52.040;4.490;2023-05-14T03:22:38;13.20;99.90
41447;DHT22;27185;52.040;4.490;2023-05-14T03:25:23;13.20;99.90
41447;DHT22;27185;52.040;4.490;2023-05-14T03:28:09;13.20;99.90
41447;DHT22;27185;52.040;4.490;2023-05-14T03:30:54;13.20;99.90
41447;DHT22;27185;52.040;4.490;2023-05-14T03:33:40;13.20;99.90
41447;DHT22;27185;52.040;4.490;2023-05-14T03:36:26;13.20;99.90
41447;DHT22;27185;52.040;4.490;2023-05-14T03:39:11;13.20;99.90
41447;DHT22;27185;52.040;4.490;2023-05-14T03:41:59;13.20;99.90
41447;DHT22;27185;52.040;4.490;2023-05-14T03:44:45;13.30;99.90
41447;DHT22;27185;52.040;4.490;2023-05-14T03:47:30;13.20;99.90
41447;DHT22;27185;52.040;4.490;2023-05-14T03:50:16;13.20;99.90
41447;DHT22;27185;52.040;4.490;2023-05-14T03:53:02;13.20;99.90
41447;DHT22;27185;52.040;4.490;2023-05-14T03:55:47;13.20;99.90
41447;DHT22;27185;52.040;4.490;2023-05-14T03:58:33;13.20;99.90
41447;DHT22;27185;52.040;4.490;2023-05-14T04:01:18;13.10;99.90
41447;DHT22;27185;52.040;4.490;2023-05-14T04:04:04;13.10;99.90
41447;DHT22;27185;52.040;4.490;2023-05-14T04:06:50;13.10;99.90
41447;DHT22;27185;52.040;4.490;2023-05-14T04:09:35;13.10;99.90
41447;DHT22;27185;52.040;4.490;2023-05-14T04:12:21;13.10;99.90
41447;DHT22;27185;52.040;4.490;2023-05-14T04:15:07;13.10;99.90
41447;DHT22;27185;52.040;4.490;2023-05-14T04:17:53;13.00;99.90
41447;DHT22;27185;52.040;4.490;2023-05-14T04:20:38;13.00;99.90
41447;DHT22;27185;52.040;4.490;2023-05-14T04:23:24;13.10;99.90
41447;DHT22;27185;52.040;4.490;2023-05-14T04:26:10;13.00;99.90
41447;DHT22;27185;52.040;4.490;2023-05-14T04:28:56;13.10;99.90
41447;DHT22;27185;52.040;4.490;2023-05-14T04:31:43;13.10;99.90
41447;DHT22;27185;52.040;4.490;2023-05-14T04:34:28;13.10;99.90
41447;DHT22;27185;52.040;4.490;2023-05-14T04:37:14;13.10;99.90
41447;DHT22;27185;52.040;4.490;2023-05-14T04:40:00;13.10;99.90
41447;DHT22;27185;52.040;4.490;2023-05-14T04:42:45;13.10;99.90
41447;DHT22;27185;52.040;4.490;2023-05-14T04:45:31;13.10;99.90
41447;DHT22;27185;52.040;4.490;2023-05-14T04:48:17;13.20;99.90
41447;DHT22;27185;52.040;4.490;2023-05-14T04:51:02;13.20;99.90
41447;DHT22;27185;52.040;4.490;2023-05-14T04:53:48;13.30;99.90
41447;DHT22;27185;52.040;4.490;2023-05-14T04:56:34;13.30;99.90
41447;DHT22;27185;52.040;4.490;2023-05-14T04:59:19;13.40;99.90
41447;DHT22;27185;52.040;4.490;2023-05-14T05:02:05;13.40;99.90
41447;DHT22;27185;52.040;4.490;2023-05-14T05:04:51;13.40;99.90
41447;DHT22;27185;52.040;4.490;2023-05-14T05:07:36;13.50;99.90
41447;DHT22;27185;52.040;4.490;2023-05-14T05:10:22;13.50;99.90
41447;DHT22;27185;52.040;4.490;2023-05-14T05:13:07;13.50;99.90
41447;DHT22;27185;52.040;4.490;2023-05-14T05:15:53;13.50;99.90
41447;DHT22;27185;52.040;4.490;2023-05-14T05:18:39;13.50;99.90
41447;DHT22;27185;52.040;4.490;2023-05-14T05:21:24;13.50;99.90
41447;DHT22;27185;52.040;4.490;2023-05-14T05:24:10;13.60;99.90
41447;DHT22;27185;52.040;4.490;2023-05-14T05:26:57;13.60;99.90
41447;DHT22;27185;52.040;4.490;2023-05-14T05:29:43;13.60;99.90
41447;DHT22;27185;52.040;4.490;2023-05-14T05:32:29;13.60;99.90
41447;DHT22;27185;52.040;4.490;2023-05-14T05:35:14;13.70;99.90
41447;DHT22;27185;52.040;4.490;2023-05-14T05:38:01;13.70;99.90
41447;DHT22;27185;52.040;4.490;2023-05-14T05:40:46;13.80;99.90
41447;DHT22;27185;52.040;4.490;2023-05-14T05:43:32;13.80;99.90
41447;DHT22;27185;52.040;4.490;2023-05-14T05:46:18;13.90;99.90
41447;DHT22;27185;52.040;4.490;2023-05-14T05:49:04;14.00;99.90
41447;DHT22;27185;52.040;4.490;2023-05-14T05:51:49;14.00;99.90
41447;DHT22;27185;52.040;4.490;2023-05-14T05:54:35;14.10;99.90
41447;DHT22;27185;52.040;4.490;2023-05-14T05:57:20;14.10;99.90
41447;DHT22;27185;52.040;4.490;2023-05-14T06:00:08;14.20;99.90
41447;DHT22;27185;52.040;4.490;2023-05-14T06:02:59;14.20;99.90
41447;DHT22;27185;52.040;4.490;2023-05-14T06:05:45;14.20;99.90
41447;DHT22;27185;52.040;4.490;2023-05-14T06:08:31;14.30;99.90
41447;DHT22;27185;52.040;4.490;2023-05-14T06:11:16;14.30;99.90
41447;DHT22;27185;52.040;4.490;2023-05-14T06:14:02;14.30;99.90
41447;DHT22;27185;52.040;4.490;2023-05-14T06:16:48;14.40;99.90
41447;DHT22;27185;52.040;4.490;2023-05-14T06:19:33;14.40;99.90
41447;DHT22;27185;52.040;4.490;2023-05-14T06:22:19;14.40;99.90
41447;DHT22;27185;52.040;4.490;2023-05-14T06:25:05;14.40;99.90
41447;DHT22;27185;52.040;4.490;2023-05-14T06:27:50;14.50;99.90
41447;DHT22;27185;52.040;4.490;2023-05-14T06:30:36;14.60;99.90
41447;DHT22;27185;52.040;4.490;2023-05-14T06:33:22;14.70;99.90
41447;DHT22;27185;52.040;4.490;2023-05-14T06:36:14;14.70;99.90
41447;DHT22;27185;52.040;4.490;2023-05-14T06:38:59;14.80;99.90
41447;DHT22;27185;52.040;4.490;2023-05-14T06:41:45;14.90;99.90
41447;DHT22;27185;52.040;4.490;2023-05-14T06:44:30;15.00;99.90
41447;DHT22;27185;52.040;4.490;2023-05-14T06:47:16;15.00;99.90
41447;DHT22;27185;52.040;4.490;2023-05-14T06:50:02;15.10;99.90
41447;DHT22;27185;52.040;4.490;2023-05-14T06:52:47;15.20;99.90
41447;DHT22;27185;52.040;4.490;2023-05-14T06:55:33;15.20;99.90
41447;DHT22;27185;52.040;4.490;2023-05-14T06:58:19;15.30;99.90
41447;DHT22;27185;52.040;4.490;2023-05-14T07:01:04;15.30;99.90
41447;DHT22;27185;52.040;4.490;2023-05-14T07:03:50;15.40;99.90
41447;DHT22;27185;52.040;4.490;2023-05-14T07:06:36;15.50;99.90
41447;DHT22;27185;52.040;4.490;2023-05-14T07:09:21;15.60;99.90
41447;DHT22;27185;52.040;4.490;2023-05-14T07:12:07;15.60;99.90
41447;DHT22;27185;52.040;4.490;2023-05-14T07:14:53;15.70;99.90
41447;DHT22;27185;52.040;4.490;2023-05-14T07:17:39;15.70;99.90
41447;DHT22;27185;52.040;4.490;2023-05-14T07:20:25;15.80;99.90
41447;DHT22;27185;52.040;4.490;2023-05-14T07:23:10;15.90;99.90
41447;DHT22;27185;52.040;4.490;2023-05-14T07:25:56;16.00;99.90
41447;DHT22;27185;52.040;4.490;2023-05-14T07:28:42;16.10;99.90
41447;DHT22;27185;52.040;4.490;2023-05-14T07:31:27;16.20;99.90
41447;DHT22;27185;52.040;4.490;2023-05-14T07:34:13;16.20;99.90
41447;DHT22;27185;52.040;4.490;2023-05-14T07:36:58;16.30;99.90
41447;DHT22;27185;52.040;4.490;2023-05-14T07:39:44;16.40;99.90
41447;DHT22;27185;52.040;4.490;2023-05-14T07:42:30;16.40;99.90
41447;DHT22;27185;52.040;4.490;2023-05-14T07:45:16;16.50;99.90
41447;DHT22;27185;52.040;4.490;2023-05-14T07:48:01;16.60;99.90
41447;DHT22;27185;52.040;4.490;2023-05-14T07:50:47;16.60;99.90
41447;DHT22;27185;52.040;4.490;2023-05-14T07:53:33;16.70;99.90
41447;DHT22;27185;52.040;4.490;2023-05-14T07:56:19;16.70;99.90
41447;DHT22;27185;52.040;4.490;2023-05-14T07:59:05;16.80;99.90
41447;DHT22;27185;52.040;4.490;2023-05-14T08:01:51;16.80;99.90
41447;DHT22;27185;52.040;4.490;2023-05-14T08:04:37;16.80;99.90
41447;DHT22;27185;52.040;4.490;2023-05-14T08:07:23;16.70;99.90
41447;DHT22;27185;52.040;4.490;2023-05-14T08:10:09;16.80;99.90
41447;DHT22;27185;52.040;4.490;2023-05-14T08:12:55;16.70;99.90
41447;DHT22;27185;52.040;4.490;2023-05-14T08:15:40;16.80;99.90
41447;DHT22;27185;52.040;4.490;2023-05-14T08:18:26;16.80;99.90
41447;DHT22;27185;52.040;4.490;2023-05-14T08:21:12;16.80;99.90
41447;DHT22;27185;52.040;4.490;2023-05-14T08:23:57;16.90;99.90
41447;DHT22;27185;52.040;4.490;2023-05-14T08:26:43;16.90;99.90
41447;DHT22;27185;52.040;4.490;2023-05-14T08:29:28;17.00;99.90
41447;DHT22;27185;52.040;4.490;2023-05-14T08:32:14;17.10;99.90
41447;DHT22;27185;52.040;4.490;2023-05-14T08:34:59;17.20;99.90
41447;DHT22;27185;52.040;4.490;2023-05-14T08:37:45;17.20;99.90
41447;DHT22;27185;52.040;4.490;2023-05-14T08:40:31;17.30;99.90
41447;DHT22;27185;52.040;4.490;2023-05-14T08:43:19;17.40;99.90
41447;DHT22;27185;52.040;4.490;2023-05-14T08:46:09;17.60;99.90
41447;DHT22;27185;52.040;4.490;2023-05-14T08:52:04;17.80;99.90
41447;DHT22;27185;52.040;4.490;2023-05-14T08:54:51;17.90;99.90
41447;DHT22;27185;52.040;4.490;2023-05-14T08:57:39;18.00;99.90
41447;DHT22;27185;52.040;4.490;2023-05-14T09:00:25;18.20;99.90
41447;DHT22;27185;52.040;4.490;2023-05-14T09:03:11;18.40;99.90
41447;DHT22;27185;52.040;4.490;2023-05-14T09:05:57;18.50;99.90
41447;DHT22;27185;52.040;4.490;2023-05-14T09:08:43;18.70;99.90
41447;DHT22;27185;52.040;4.490;2023-05-14T09:11:30;18.80;99.90
41447;DHT22;27185;52.040;4.490;2023-05-14T09:14:15;18.90;99.90
41447;DHT22;27185;52.040;4.490;2023-05-14T09:17:01;19.00;99.90
41447;DHT22;27185;52.040;4.490;2023-05-14T09:19:47;19.10;99.90
41447;DHT22;27185;52.040;4.490;2023-05-14T09:22:33;19.20;99.90
41447;DHT22;27185;52.040;4.490;2023-05-14T09:25:25;19.30;99.90
41447;DHT22;27185;52.040;4.490;2023-05-14T09:28:11;19.40;99.90
41447;DHT22;27185;52.040;4.490;2023-05-14T09:31:01;19.60;99.90
41447;DHT22;27185;52.040;4.490;2023-05-14T09:33:51;19.80;99.90
41447;DHT22;27185;52.040;4.490;2023-05-14T09:36:36;20.00;99.90
41447;DHT22;27185;52.040;4.490;2023-05-14T09:39:23;20.20;99.90
41447;DHT22;27185;52.040;4.490;2023-05-14T09:42:09;20.30;99.90
41447;DHT22;27185;52.040;4.490;2023-05-14T09:44:55;20.50;99.90
41447;DHT22;27185;52.040;4.490;2023-05-14T09:47:41;20.50;99.90
41447;DHT22;27185;52.040;4.490;2023-05-14T09:50:26;20.70;99.90
41447;DHT22;27185;52.040;4.490;2023-05-14T09:53:12;20.70;99.90
41447;DHT22;27185;52.040;4.490;2023-05-14T09:55:58;20.80;99.90
41447;DHT22;27185;52.040;4.490;2023-05-14T09:58:44;21.00;99.90
41447;DHT22;27185;52.040;4.490;2023-05-14T10:01:30;21.10;99.90
41447;DHT22;27185;52.040;4.490;2023-05-14T10:04:17;21.10;99.90
41447;DHT22;27185;52.040;4.490;2023-05-14T10:07:03;21.10;99.90
41447;DHT22;27185;52.040;4.490;2023-05-14T10:09:55;21.20;99.90
41447;DHT22;27185;52.040;4.490;2023-05-14T10:12:56;21.20;99.90
41447;DHT22;27185;52.040;4.490;2023-05-14T10:15:46;21.20;99.90
41447;DHT22;27185;52.040;4.490;2023-05-14T10:18:42;21.30;99.90
41447;DHT22;27185;52.040;4.490;2023-05-14T10:21:29;21.30;99.90
41447;DHT22;27185;52.040;4.490;2023-05-14T10:24:16;21.40;99.90
41447;DHT22;27185;52.040;4.490;2023-05-14T10:27:03;21.50;99.90
41447;DHT22;27185;52.040;4.490;2023-05-14T10:29:53;21.60;99.90
41447;DHT22;27185;52.040;4.490;2023-05-14T10:32:39;21.70;99.90
41447;DHT22;27185;52.040;4.490;2023-05-14T10:35:26;21.80;99.90
41447;DHT22;27185;52.040;4.490;2023-05-14T10:38:13;21.90;99.90
41447;DHT22;27185;52.040;4.490;2023-05-14T10:41:01;22.10;99.90
41447;DHT22;27185;52.040;4.490;2023-05-14T10:43:49;22.30;99.90
41447;DHT22;27185;52.040;4.490;2023-05-14T10:46:34;22.40;99.90
41447;DHT22;27185;52.040;4.490;2023-05-14T10:49:20;22.50;99.90
41447;DHT22;27185;52.040;4.490;2023-05-14T10:52:10;22.60;99.90
41447;DHT22;27185;52.040;4.490;2023-05-14T10:55:01;22.60;99.90
41447;DHT22;27185;52.040;4.490;2023-05-14T10:57:48;22.60;99.90
41447;DHT22;27185;52.040;4.490;2023-05-14T11:00:34;22.50;99.90
41447;DHT22;27185;52.040;4.490;2023-05-14T11:03:20;22.50;99.90
41447;DHT22;27185;52.040;4.490;2023-05-14T11:06:06;22.50;99.90
41447;DHT22;27185;52.040;4.490;2023-05-14T11:08:53;22.50;99.90
41447;DHT22;27185;52.040;4.490;2023-05-14T11:11:39;22.50;99.90
41447;DHT22;27185;52.040;4.490;2023-05-14T11:14:25;22.50;99.90
41447;DHT22;27185;52.040;4.490;2023-05-14T11:17:10;22.40;99.90
41447;DHT22;27185;52.040;4.490;2023-05-14T11:19:57;22.40;99.90
41447;DHT22;27185;52.040;4.490;2023-05-14T11:22:44;22.40;99.90
41447;DHT22;27185;52.040;4.490;2023-05-14T11:25:30;22.50;99.90
41447;DHT22;27185;52.040;4.490;2023-05-14T11:28:15;22.60;99.90
41447;DHT22;27185;52.040;4.490;2023-05-14T11:31:01;22.80;99.90
41447;DHT22;27185;52.040;4.490;2023-05-14T11:33:47;23.00;99.90
41447;DHT22;27185;52.040;4.490;2023-05-14T11:36:35;23.20;99.90
41447;DHT22;27185;52.040;4.490;2023-05-14T11:39:21;23.30;99.90
41447;DHT22;27185;52.040;4.490;2023-05-14T11:42:10;23.40;99.90
41447;DHT22;27185;52.040;4.490;2023-05-14T11:44:57;23.50;99.90
41447;DHT22;27185;52.040;4.490;2023-05-14T11:47:43;23.60;99.90
41447;DHT22;27185;52.040;4.490;2023-05-14T11:50:28;23.70;99.90
41447;DHT22;27185;52.040;4.490;2023-05-14T11:53:24;23.90;99.90
41447;DHT22;27185;52.040;4.490;2023-05-14T11:56:11;23.90;99.90
41447;DHT22;27185;52.040;4.490;2023-05-14T11:58:56;24.00;99.90
41447;DHT22;27185;52.040;4.490;2023-05-14T12:01:46;24.10;99.90
41447;DHT22;27185;52.040;4.490;2023-05-14T12:04:31;24.10;99.90
41447;DHT22;27185;52.040;4.490;2023-05-14T12:07:17;24.10;99.80
41447;DHT22;27185;52.040;4.490;2023-05-14T12:10:03;24.10;99.90
41447;DHT22;27185;52.040;4.490;2023-05-14T12:12:49;24.10;99.90
41447;DHT22;27185;52.040;4.490;2023-05-14T12:15:34;24.20;99.90
41447;DHT22;27185;52.040;4.490;2023-05-14T12:18:20;24.20;99.90
41447;DHT22;27185;52.040;4.490;2023-05-14T12:21:06;24.40;99.90
41447;DHT22;27185;52.040;4.490;2023-05-14T12:23:57;24.50;99.90
41447;DHT22;27185;52.040;4.490;2023-05-14T12:26:45;24.60;99.90
41447;DHT22;27185;52.040;4.490;2023-05-14T12:29:34;24.70;99.90
41447;DHT22;27185;52.040;4.490;2023-05-14T12:32:21;24.70;99.50
41447;DHT22;27185;52.040;4.490;2023-05-14T12:35:07;24.70;99.90
41447;DHT22;27185;52.040;4.490;2023-05-14T12:37:53;24.50;99.20
41447;DHT22;27185;52.040;4.490;2023-05-14T12:40:38;24.30;99.70
41447;DHT22;27185;52.040;4.490;2023-05-14T12:43:24;24.20;99.90
41447;DHT22;27185;52.040;4.490;2023-05-14T12:46:14;24.10;99.90
41447;DHT22;27185;52.040;4.490;2023-05-14T12:49:00;24.10;99.90
41447;DHT22;27185;52.040;4.490;2023-05-14T12:51:46;24.20;99.90
41447;DHT22;27185;52.040;4.490;2023-05-14T12:54:32;24.20;99.90
41447;DHT22;27185;52.040;4.490;2023-05-14T12:57:17;24.10;99.70
41447;DHT22;27185;52.040;4.490;2023-05-14T13:00:03;24.00;99.60
41447;DHT22;27185;52.040;4.490;2023-05-14T13:02:52;24.00;99.10
41447;DHT22;27185;52.040;4.490;2023-05-14T13:05:38;23.90;99.50
41447;DHT22;27185;52.040;4.490;2023-05-14T13:08:24;23.80;99.70
41447;DHT22;27185;52.040;4.490;2023-05-14T13:11:10;23.70;99.90
41447;DHT22;27185;52.040;4.490;2023-05-14T13:13:56;23.70;99.90
41447;DHT22;27185;52.040;4.490;2023-05-14T13:16:43;23.70;99.70
41447;DHT22;27185;52.040;4.490;2023-05-14T13:19:28;23.70;99.60
41447;DHT22;27185;52.040;4.490;2023-05-14T13:22:14;23.60;99.30
41447;DHT22;27185;52.040;4.490;2023-05-14T13:25:02;23.50;99.40
41447;DHT22;27185;52.040;4.490;2023-05-14T13:27:47;23.50;99.70
41447;DHT22;27185;52.040;4.490;2023-05-14T13:30:35;23.40;99.70
41447;DHT22;27185;52.040;4.490;2023-05-14T13:33:20;23.30;99.60
41447;DHT22;27185;52.040;4.490;2023-05-14T13:36:06;23.20;99.50
41447;DHT22;27185;52.040;4.490;2023-05-14T13:38:52;23.10;99.30
41447;DHT22;27185;52.040;4.490;2023-05-14T13:41:38;22.90;99.40
41447;DHT22;27185;52.040;4.490;2023-05-14T13:44:23;22.70;99.70
41447;DHT22;27185;52.040;4.490;2023-05-14T13:47:09;22.60;99.70
41447;DHT22;27185;52.040;4.490;2023-05-14T13:49:55;22.40;99.80
41447;DHT22;27185;52.040;4.490;2023-05-14T13:52:43;22.30;99.60
41447;DHT22;27185;52.040;4.490;2023-05-14T13:55:29;22.20;99.80
41447;DHT22;27185;52.040;4.490;2023-05-14T13:58:15;22.00;99.90
41447;DHT22;27185;52.040;4.490;2023-05-14T14:01:01;21.90;99.90
41447;DHT22;27185;52.040;4.490;2023-05-14T14:03:46;21.80;99.90
41447;DHT22;27185;52.040;4.490;2023-05-14T14:06:32;21.70;99.90
41447;DHT22;27185;52.040;4.490;2023-05-14T14:09:17;21.70;99.90
41447;DHT22;27185;52.040;4.490;2023-05-14T14:12:03;21.60;99.90
41447;DHT22;27185;52.040;4.490;2023-05-14T14:14:49;21.60;99.90
41447;DHT22;27185;52.040;4.490;2023-05-14T14:17:35;21.60;99.90
41447;DHT22;27185;52.040;4.490;2023-05-14T14:20:21;21.50;99.90
41447;DHT22;27185;52.040;4.490;2023-05-14T14:23:06;21.50;99.90
41447;DHT22;27185;52.040;4.490;2023-05-14T14:25:52;21.50;99.90
41447;DHT22;27185;52.040;4.490;2023-05-14T14:28:38;21.50;99.90
41447;DHT22;27185;52.040;4.490;2023-05-14T14:31:24;21.60;99.90
41447;DHT22;27185;52.040;4.490;2023-05-14T14:34:10;21.60;99.90
41447;DHT22;27185;52.040;4.490;2023-05-14T14:36:55;21.70;99.90
41447;DHT22;27185;52.040;4.490;2023-05-14T14:39:41;21.70;99.90
41447;DHT22;27185;52.040;4.490;2023-05-14T14:42:26;21.70;99.90
41447;DHT22;27185;52.040;4.490;2023-05-14T14:45:14;21.60;99.90
41447;DHT22;27185;52.040;4.490;2023-05-14T14:48:31;21.50;99.90
41447;DHT22;27185;52.040;4.490;2023-05-14T14:51:18;21.40;99.40
41447;DHT22;27185;52.040;4.490;2023-05-14T14:54:04;21.30;99.90
41447;DHT22;27185;52.040;4.490;2023-05-14T14:56:50;21.20;99.90
41447;DHT22;27185;52.040;4.490;2023-05-14T14:59:36;21.00;99.90
41447;DHT22;27185;52.040;4.490;2023-05-14T15:02:22;20.90;99.90
41447;DHT22;27185;52.040;4.490;2023-05-14T15:05:08;20.80;99.90
41447;DHT22;27185;52.040;4.490;2023-05-14T15:07:55;20.70;99.90
41447;DHT22;27185;52.040;4.490;2023-05-14T15:10:40;20.60;99.90
41447;DHT22;27185;52.040;4.490;2023-05-14T15:13:26;20.60;99.90
41447;DHT22;27185;52.040;4.490;2023-05-14T15:16:12;20.60;99.90
41447;DHT22;27185;52.040;4.490;2023-05-14T15:18:58;20.60;99.90
41447;DHT22;27185;52.040;4.490;2023-05-14T15:21:43;20.70;99.90
41447;DHT22;27185;52.040;4.490;2023-05-14T15:24:29;20.70;99.90
41447;DHT22;27185;52.040;4.490;2023-05-14T15:27:15;20.80;99.90
41447;DHT22;27185;52.040;4.490;2023-05-14T15:30:01;20.80;99.90
41447;DHT22;27185;52.040;4.490;2023-05-14T15:32:47;20.80;99.90
41447;DHT22;27185;52.040;4.490;2023-05-14T15:35:32;20.90;99.90
41447;DHT22;27185;52.040;4.490;2023-05-14T15:38:18;20.90;99.90
41447;DHT22;27185;52.040;4.490;2023-05-14T15:41:04;21.00;99.90
41447;DHT22;27185;52.040;4.490;2023-05-14T15:43:50;21.00;99.90
41447;DHT22;27185;52.040;4.490;2023-05-14T15:46:35;21.00;99.90
41447;DHT22;27185;52.040;4.490;2023-05-14T15:49:22;21.00;99.90
41447;DHT22;27185;52.040;4.490;2023-05-14T15:52:07;21.00;99.90
41447;DHT22;27185;52.040;4.490;2023-05-14T15:54:53;21.00;99.90
41447;DHT22;27185;52.040;4.490;2023-05-14T15:57:40;20.90;99.90
41447;DHT22;27185;52.040;4.490;2023-05-14T16:00:26;20.80;99.90
41447;DHT22;27185;52.040;4.490;2023-05-14T16:03:11;20.60;99.90
41447;DHT22;27185;52.040;4.490;2023-05-14T16:05:57;20.50;99.90
41447;DHT22;27185;52.040;4.490;2023-05-14T16:08:42;20.40;99.90
41447;DHT22;27185;52.040;4.490;2023-05-14T16:11:29;20.30;99.90
41447;DHT22;27185;52.040;4.490;2023-05-14T16:14:14;20.10;99.90
41447;DHT22;27185;52.040;4.490;2023-05-14T16:17:00;20.10;99.90
41447;DHT22;27185;52.040;4.490;2023-05-14T16:19:46;20.10;99.90
41447;DHT22;27185;52.040;4.490;2023-05-14T16:22:32;20.10;99.90
41447;DHT22;27185;52.040;4.490;2023-05-14T16:25:18;20.20;99.90
41447;DHT22;27185;52.040;4.490;2023-05-14T16:28:04;20.20;99.90
41447;DHT22;27185;52.040;4.490;2023-05-14T16:30:52;20.20;99.90
41447;DHT22;27185;52.040;4.490;2023-05-14T16:33:37;20.20;99.90
41447;DHT22;27185;52.040;4.490;2023-05-14T16:36:26;20.20;99.90
41447;DHT22;27185;52.040;4.490;2023-05-14T16:39:12;20.10;99.90
41447;DHT22;27185;52.040;4.490;2023-05-14T16:41:57;20.10;99.90
41447;DHT22;27185;52.040;4.490;2023-05-14T16:44:43;20.10;99.90
41447;DHT22;27185;52.040;4.490;2023-05-14T16:47:29;20.10;99.90
41447;DHT22;27185;52.040;4.490;2023-05-14T16:50:14;20.00;99.90
41447;DHT22;27185;52.040;4.490;2023-05-14T16:53:00;19.90;99.90
41447;DHT22;27185;52.040;4.490;2023-05-14T16:55:46;19.70;99.90
41447;DHT22;27185;52.040;4.490;2023-05-14T16:58:31;19.60;99.90
41447;DHT22;27185;52.040;4.490;2023-05-14T17:01:17;19.50;99.90
41447;DHT22;27185;52.040;4.490;2023-05-14T17:07:36;19.20;99.90
41447;DHT22;27185;52.040;4.490;2023-05-14T17:10:23;19.00;99.90
41447;DHT22;27185;52.040;4.490;2023-05-14T17:13:09;18.80;99.90
41447;DHT22;27185;52.040;4.490;2023-05-14T17:15:55;18.70;99.90
41447;DHT22;27185;52.040;4.490;2023-05-14T17:18:40;18.50;99.90
41447;DHT22;27185;52.040;4.490;2023-05-14T17:21:26;18.40;99.90
41447;DHT22;27185;52.040;4.490;2023-05-14T17:24:12;18.30;99.90
41447;DHT22;27185;52.040;4.490;2023-05-14T17:26:57;18.10;99.90
41447;DHT22;27185;52.040;4.490;2023-05-14T17:29:43;18.00;99.90
41447;DHT22;27185;52.040;4.490;2023-05-14T17:32:29;17.90;99.90
41447;DHT22;27185;52.040;4.490;2023-05-14T17:35:15;17.70;99.90
41447;DHT22;27185;52.040;4.490;2023-05-14T17:38:01;17.60;99.90
41447;DHT22;27185;52.040;4.490;2023-05-14T17:40:47;17.50;99.90
41447;DHT22;27185;52.040;4.490;2023-05-14T17:43:33;17.30;99.90